createdAt,value
2018-07-28T00:00:04.853Z,68.56
2018-07-28T00:00:14.612Z,68.76
2018-07-28T00:00:24.643Z,68.56
2018-07-28T00:00:34.903Z,68.47
2018-07-28T00:00:44.681Z,68.76
2018-07-28T00:00:54.672Z,68.56
2018-07-28T00:01:04.946Z,68.56
2018-07-28T00:01:14.964Z,68.56
2018-07-28T00:01:25.012Z,68.66
2018-07-28T00:01:34.995Z,68.76
2018-07-28T00:01:45.093Z,68.66
2018-07-28T00:01:55.023Z,68.08
2018-07-28T00:02:05.023Z,68.66
2018-07-28T00:02:15.063Z,68.08
2018-07-28T00:02:25.068Z,68.47
2018-07-28T00:02:34.802Z,68.08
2018-07-28T00:02:45.053Z,68.85
2018-07-28T00:02:55.083Z,68.85
2018-07-28T00:03:04.845Z,68.85
2018-07-28T00:03:14.856Z,68.76
2018-07-28T00:03:25.166Z,68.79
2018-07-28T00:03:35.189Z,68.5
2018-07-28T00:03:44.895Z,68.66
2018-07-28T00:03:55.189Z,68.66
2018-07-28T00:04:05.232Z,68.76
2018-07-28T00:04:14.933Z,68.56
2018-07-28T00:04:25.231Z,68.47
2018-07-28T00:04:35.234Z,68.66
2018-07-28T00:04:45.240Z,68.76
2018-07-28T00:04:55.274Z,68.85
2018-07-28T00:05:05.301Z,68.76
2018-07-28T00:05:15.070Z,68.76
2018-07-28T00:05:25.301Z,68.76
2018-07-28T00:05:35.322Z,68.56
2018-07-28T00:05:45.341Z,68.6
2018-07-28T00:05:55.332Z,68.76
2018-07-28T00:06:05.373Z,68.85
2018-07-28T00:06:15.382Z,68.76
2018-07-28T00:06:25.395Z,68.76
2018-07-28T00:06:35.402Z,68.66
2018-07-28T00:06:45.464Z,68.66
2018-07-28T00:06:55.142Z,68.76
2018-07-28T00:07:05.446Z,68.27
2018-07-28T00:07:15.448Z,68.85
2018-07-28T00:07:25.473Z,68.76
2018-07-28T00:07:35.223Z,68.85
2018-07-28T00:07:45.503Z,68.85
2018-07-28T00:07:55.532Z,68.37
2018-07-28T00:08:05.267Z,68.85
2018-07-28T00:08:15.333Z,68.37
2018-07-28T00:08:25.562Z,68.27
2018-07-28T00:08:35.606Z,68.76
2018-07-28T00:08:45.584Z,68.66
2018-07-28T00:08:55.614Z,68.76
2018-07-28T00:09:05.613Z,68.47
2018-07-28T00:09:15.633Z,68.76
2018-07-28T00:09:25.633Z,68.76
2018-07-28T00:09:35.638Z,68.76
2018-07-28T00:09:45.658Z,68.76
2018-07-28T00:09:55.695Z,68.66
2018-07-28T00:10:05.721Z,68.76
2018-07-28T00:10:15.715Z,68.66
2018-07-28T00:10:25.463Z,68.66
2018-07-28T00:10:35.794Z,68.56
2018-07-28T00:10:45.477Z,68.56
2018-07-28T00:10:55.781Z,68.66
2018-07-28T00:11:05.812Z,68.56
2018-07-28T00:11:15.780Z,68.56
2018-07-28T00:11:25.788Z,68.56
2018-07-28T00:11:35.834Z,68.56
2018-07-28T00:11:45.834Z,68.37
2018-07-28T00:11:55.583Z,68.47
2018-07-28T00:12:05.886Z,68.85
2018-07-28T00:12:15.874Z,68.56
2018-07-28T00:12:25.885Z,68.85
2018-07-28T00:12:35.905Z,68.85
2018-07-28T00:12:45.946Z,68.85
2018-07-28T00:12:55.926Z,68.85
2018-07-28T00:13:05.945Z,68.76
2018-07-28T00:13:15.966Z,68.76
2018-07-28T00:13:25.703Z,68.76
2018-07-28T00:13:35.984Z,68.76
2018-07-28T00:13:46.024Z,68.85
2018-07-28T00:13:56.005Z,68.85
2018-07-28T00:14:06.045Z,68.66
2018-07-28T00:14:16.054Z,68.76
2018-07-28T00:14:26.074Z,68.66
2018-07-28T00:14:36.074Z,68.76
2018-07-28T00:14:45.802Z,69.05
2018-07-28T00:14:55.857Z,68.76
2018-07-28T00:15:06.117Z,68.76
2018-07-28T00:15:15.835Z,68.85
2018-07-28T00:15:26.159Z,68.76
2018-07-28T00:15:36.174Z,68.95
2018-07-28T00:15:46.170Z,68.76
2018-07-28T00:15:55.913Z,68.56
2018-07-28T00:16:05.924Z,68.47
2018-07-28T00:16:15.945Z,68.37
2018-07-28T00:16:26.234Z,68.47
2018-07-28T00:16:35.963Z,68.47
2018-07-28T00:16:46.315Z,68.85
2018-07-28T00:16:56.277Z,68.85
2018-07-28T00:17:06.283Z,68.56
2018-07-28T00:17:16.284Z,68.76
2018-07-28T00:17:26.294Z,68.85
2018-07-28T00:17:36.296Z,68.85
2018-07-28T00:17:46.321Z,68.76
2018-07-28T00:17:56.360Z,68.76
2018-07-28T00:18:06.355Z,68.76
2018-07-28T00:18:16.364Z,68.47
2018-07-28T00:18:26.379Z,68.76
2018-07-28T00:18:36.405Z,68.47
2018-07-28T00:18:46.421Z,68.85
2018-07-28T00:18:56.422Z,68.76
2018-07-28T00:19:06.439Z,68.76
2018-07-28T00:19:16.487Z,68.37
2018-07-28T00:19:26.221Z,68.56
2018-07-28T00:19:36.507Z,68.85
2018-07-28T00:19:46.504Z,68.66
2018-07-28T00:19:56.524Z,68.37
2018-07-28T00:20:06.526Z,68.66
2018-07-28T00:20:16.616Z,68.47
2018-07-28T00:20:26.553Z,68.56
2018-07-28T00:20:36.594Z,68.95
2018-07-28T00:20:46.576Z,68.85
2018-07-28T00:20:56.615Z,68.85
2018-07-28T00:21:06.604Z,68.76
2018-07-28T00:21:16.635Z,69.15
2018-07-28T00:21:26.654Z,69.34
2018-07-28T00:21:36.646Z,69.05
2018-07-28T00:21:46.750Z,69.34
2018-07-28T00:21:56.695Z,69.15
2018-07-28T00:22:06.676Z,69.15
2018-07-28T00:22:16.709Z,69.34
2018-07-28T00:22:26.451Z,69.05
2018-07-28T00:22:36.726Z,68.95
2018-07-28T00:22:46.740Z,68.85
2018-07-28T00:22:56.764Z,68.95
2018-07-28T00:23:06.517Z,68.95
2018-07-28T00:23:16.791Z,68.76
2018-07-28T00:23:26.817Z,68.95
2018-07-28T00:23:36.546Z,68.85
2018-07-28T00:23:46.833Z,68.85
2018-07-28T00:23:56.863Z,68.76
2018-07-28T00:24:06.874Z,68.76
2018-07-28T00:24:16.609Z,68.95
2018-07-28T00:24:26.895Z,68.85
2018-07-28T00:24:36.625Z,69.34
2018-07-28T00:24:46.635Z,69.15
2018-07-28T00:24:56.904Z,69.34
2018-07-28T00:25:06.945Z,68.85
2018-07-28T00:25:16.955Z,69.05
2018-07-28T00:25:26.965Z,69.05
2018-07-28T00:25:36.985Z,68.85
2018-07-28T00:25:46.989Z,68.85
2018-07-28T00:25:56.735Z,68.85
2018-07-28T00:26:07.035Z,68.85
2018-07-28T00:26:17.035Z,69.34
2018-07-28T00:26:27.030Z,69.24
2018-07-28T00:26:37.075Z,69.05
2018-07-28T00:26:47.127Z,69.05
2018-07-28T00:26:57.093Z,68.99
2018-07-28T00:27:07.094Z,69.05
2018-07-28T00:27:16.835Z,69.05
2018-07-28T00:27:27.135Z,68.95
2018-07-28T00:27:37.115Z,68.76
2018-07-28T00:27:47.157Z,69.05
2018-07-28T00:27:57.218Z,69.05
2018-07-28T00:28:07.195Z,69.05
2018-07-28T00:28:17.218Z,69.24
2018-07-28T00:28:27.239Z,68.85
2018-07-28T00:28:37.225Z,69.15
2018-07-28T00:28:47.278Z,69.24
2018-07-28T00:28:57.261Z,68.85
2018-07-28T00:29:06.996Z,68.85
2018-07-28T00:29:17.277Z,68.85
2018-07-28T00:29:27.322Z,69.05
2018-07-28T00:29:37.335Z,69.05
2018-07-28T00:29:47.327Z,69.05
2018-07-28T00:29:57.369Z,68.85
2018-07-28T00:30:07.416Z,69.15
2018-07-28T00:30:17.365Z,68.76
2018-07-28T00:30:27.117Z,68.76
2018-07-28T00:30:37.134Z,69.24
2018-07-28T00:30:47.405Z,69.15
2018-07-28T00:30:57.416Z,68.85
2018-07-28T00:31:07.472Z,68.85
2018-07-28T00:31:17.443Z,68.85
2018-07-28T00:31:27.463Z,68.85
2018-07-28T00:31:37.486Z,69.24
2018-07-28T00:31:47.545Z,68.85
2018-07-28T00:31:57.225Z,69.24
2018-07-28T00:32:07.544Z,69.24
2018-07-28T00:32:17.547Z,68.85
2018-07-28T00:32:27.266Z,68.76
2018-07-28T00:32:37.586Z,68.95
2018-07-28T00:32:47.576Z,68.76
2018-07-28T00:32:57.591Z,69.24
2018-07-28T00:33:07.596Z,69.34
2018-07-28T00:33:17.616Z,69.24
2018-07-28T00:33:27.628Z,68.95
2018-07-28T00:33:37.643Z,68.95
2018-07-28T00:33:47.676Z,68.76
2018-07-28T00:33:57.396Z,69.05
2018-07-28T00:34:07.666Z,68.95
2018-07-28T00:34:17.677Z,68.95
2018-07-28T00:34:27.715Z,68.95
2018-07-28T00:34:37.716Z,68.95
2018-07-28T00:34:47.761Z,68.95
2018-07-28T00:34:57.483Z,68.85
2018-07-28T00:35:07.774Z,69.15
2018-07-28T00:35:17.776Z,68.85
2018-07-28T00:35:27.528Z,68.95
2018-07-28T00:35:37.547Z,68.85
2018-07-28T00:35:47.846Z,68.76
2018-07-28T00:35:57.584Z,68.95
2018-07-28T00:36:07.849Z,68.76
2018-07-28T00:36:17.589Z,69.05
2018-07-28T00:36:27.909Z,68.95
2018-07-28T00:36:37.896Z,68.95
2018-07-28T00:36:47.912Z,69.05
2018-07-28T00:36:57.951Z,69.24
2018-07-28T00:37:07.957Z,69.15
2018-07-28T00:37:17.970Z,69.15
2018-07-28T00:37:27.970Z,69.15
2018-07-28T00:37:37.996Z,69.34
2018-07-28T00:37:48.003Z,69.15
2018-07-28T00:37:58.036Z,69.15
2018-07-28T00:38:08.028Z,69.15
2018-07-28T00:38:17.785Z,68.85
2018-07-28T00:38:27.785Z,68.76
2018-07-28T00:38:38.073Z,68.56
2018-07-28T00:38:48.090Z,68.76
2018-07-28T00:38:58.106Z,68.76
2018-07-28T00:39:08.106Z,68.76
2018-07-28T00:39:17.942Z,68.76
2018-07-28T00:39:27.858Z,68.76
2018-07-28T00:39:38.146Z,68.85
2018-07-28T00:39:48.166Z,68.47
2018-07-28T00:39:57.896Z,68.85
2018-07-28T00:40:08.186Z,68.37
2018-07-28T00:40:18.206Z,68.47
2018-07-28T00:40:28.213Z,68.85
2018-07-28T00:40:38.207Z,68.47
2018-07-28T00:40:48.248Z,68.85
2018-07-28T00:40:58.267Z,68.66
2018-07-28T00:41:08.305Z,68.76
2018-07-28T00:41:18.015Z,68.76
2018-07-28T00:41:28.308Z,68.66
2018-07-28T00:41:38.311Z,68.85
2018-07-28T00:41:48.361Z,68.47
2018-07-28T00:41:58.366Z,68.85
2018-07-28T00:42:08.348Z,68.76
2018-07-28T00:42:18.087Z,68.85
2018-07-28T00:42:28.378Z,68.85
2018-07-28T00:42:38.377Z,68.76
2018-07-28T00:42:48.397Z,68.95
2018-07-28T00:42:58.445Z,69.15
2018-07-28T00:43:08.427Z,69.15
2018-07-28T00:43:18.441Z,68.85
2018-07-28T00:43:28.197Z,68.76
2018-07-28T00:43:38.507Z,68.85
2018-07-28T00:43:48.481Z,68.66
2018-07-28T00:43:58.517Z,69.05
2018-07-28T00:44:08.545Z,69.15
2018-07-28T00:44:18.528Z,68.95
2018-07-28T00:44:28.271Z,69.05
2018-07-28T00:44:38.556Z,69.05
2018-07-28T00:44:48.557Z,68.85
2018-07-28T00:44:58.314Z,68.95
2018-07-28T00:45:08.627Z,69.24
2018-07-28T00:45:18.627Z,69.05
2018-07-28T00:45:28.629Z,68.95
2018-07-28T00:45:38.647Z,69.15
2018-07-28T00:45:48.669Z,68.95
2018-07-28T00:45:58.673Z,68.76
2018-07-28T00:46:08.404Z,68.76
2018-07-28T00:46:18.696Z,68.85
2018-07-28T00:46:28.689Z,68.85
2018-07-28T00:46:38.727Z,69.05
2018-07-28T00:46:48.810Z,68.95
2018-07-28T00:46:58.757Z,68.95
2018-07-28T00:47:08.777Z,68.95
2018-07-28T00:47:18.507Z,68.95
2018-07-28T00:47:28.781Z,68.95
2018-07-28T00:47:38.798Z,69.05
2018-07-28T00:47:48.557Z,69.34
2018-07-28T00:47:58.868Z,69.34
2018-07-28T00:48:08.838Z,69.34
2018-07-28T00:48:18.588Z,69.15
2018-07-28T00:48:28.904Z,69.24
2018-07-28T00:48:38.598Z,69.15
2018-07-28T00:48:48.898Z,69.05
2018-07-28T00:48:58.638Z,69.15
2018-07-28T00:49:08.931Z,69.24
2018-07-28T00:49:18.950Z,68.95
2018-07-28T00:49:29.033Z,69.43
2018-07-28T00:49:38.718Z,69.24
2018-07-28T00:49:48.970Z,69.43
2018-07-28T00:49:59.002Z,69.43
2018-07-28T00:50:09.051Z,69.43
2018-07-28T00:50:19.068Z,69.34
2018-07-28T00:50:29.048Z,69.53
2018-07-28T00:50:39.048Z,69.43
2018-07-28T00:50:49.120Z,69.43
2018-07-28T00:50:59.097Z,69.43
2018-07-28T00:51:09.120Z,69.05
2018-07-28T00:51:19.134Z,69.15
2018-07-28T00:51:29.154Z,69.34
2018-07-28T00:51:39.140Z,69.63
2018-07-28T00:51:49.231Z,69.43
2018-07-28T00:51:59.200Z,69.24
2018-07-28T00:52:09.209Z,69.34
2018-07-28T00:52:18.948Z,69.53
2018-07-28T00:52:28.958Z,69.53
2018-07-28T00:52:39.238Z,69.34
2018-07-28T00:52:49.258Z,69.63
2018-07-28T00:52:59.279Z,69.34
2018-07-28T00:53:09.270Z,69.43
2018-07-28T00:53:19.012Z,69.63
2018-07-28T00:53:29.308Z,69.53
2018-07-28T00:53:39.319Z,69.34
2018-07-28T00:53:49.335Z,69.43
2018-07-28T00:53:59.358Z,69.43
2018-07-28T00:54:09.365Z,69.73
2018-07-28T00:54:19.379Z,69.34
2018-07-28T00:54:29.400Z,69.43
2018-07-28T00:54:39.136Z,69.34
2018-07-28T00:54:49.421Z,69.53
2018-07-28T00:54:59.446Z,69.24
2018-07-28T00:55:09.456Z,69.53
2018-07-28T00:55:19.453Z,69.53
2018-07-28T00:55:29.218Z,69.53
2018-07-28T00:55:39.508Z,69.24
2018-07-28T00:55:49.493Z,69.43
2018-07-28T00:55:59.500Z,69.34
2018-07-28T00:56:09.250Z,69.34
2018-07-28T00:56:19.568Z,69.43
2018-07-28T00:56:29.281Z,69.34
2018-07-28T00:56:39.571Z,69.43
2018-07-28T00:56:49.369Z,69.63
2018-07-28T00:56:59.310Z,69.63
2018-07-28T00:57:09.623Z,69.24
2018-07-28T00:57:19.359Z,69.34
2018-07-28T00:57:29.636Z,69.34
2018-07-28T00:57:39.649Z,69.53
2018-07-28T00:57:49.690Z,69.43
2018-07-28T00:57:59.675Z,69.43
2018-07-28T00:58:09.699Z,69.53
2018-07-28T00:58:19.721Z,69.43
2018-07-28T00:58:29.701Z,69.34
2018-07-28T00:58:39.710Z,69.34
2018-07-28T00:58:49.720Z,69.43
2018-07-28T00:58:59.770Z,69.43
2018-07-28T00:59:09.769Z,69.34
2018-07-28T00:59:19.515Z,69.53
2018-07-28T00:59:29.798Z,69.53
2018-07-28T00:59:39.798Z,69.24
2018-07-28T00:59:49.562Z,69.34
2018-07-28T00:59:59.883Z,69.53
2018-07-28T01:00:09.851Z,69.53
2018-07-28T01:00:19.866Z,69.73
2018-07-28T01:00:29.892Z,69.63
2018-07-28T01:00:39.882Z,69.73
2018-07-28T01:00:49.654Z,69.43
2018-07-28T01:00:59.953Z,69.43
2018-07-28T01:01:09.971Z,69.43
2018-07-28T01:01:19.690Z,69.24
2018-07-28T01:01:29.970Z,69.34
2018-07-28T01:01:39.979Z,69.24
2018-07-28T01:01:50.140Z,69.24
2018-07-28T01:02:00.020Z,69.34
2018-07-28T01:02:10.023Z,69.34
2018-07-28T01:02:20.014Z,69.05
2018-07-28T01:02:30.041Z,69.15
2018-07-28T01:02:40.062Z,68.95
2018-07-28T01:02:50.063Z,68.95
2018-07-28T01:03:00.092Z,69.24
2018-07-28T01:03:10.121Z,69.15
2018-07-28T01:03:20.130Z,68.95
2018-07-28T01:03:30.130Z,69.24
2018-07-28T01:03:40.149Z,69.15
2018-07-28T01:03:50.179Z,69.24
2018-07-28T01:04:00.177Z,69.34
2018-07-28T01:04:10.179Z,69.24
2018-07-28T01:04:20.199Z,69.24
2018-07-28T01:04:30.251Z,69.24
2018-07-28T01:04:40.230Z,69.15
2018-07-28T01:04:49.970Z,69.34
2018-07-28T01:05:00.257Z,69.05
2018-07-28T01:05:10.283Z,69.24
2018-07-28T01:05:20.290Z,69.34
2018-07-28T01:05:30.030Z,69.34
2018-07-28T01:05:40.300Z,69.34
2018-07-28T01:05:50.320Z,69.24
2018-07-28T01:06:00.360Z,69.24
2018-07-28T01:06:10.341Z,69.05
2018-07-28T01:06:20.361Z,69.05
2018-07-28T01:06:30.135Z,68.95
2018-07-28T01:06:40.420Z,68.95
2018-07-28T01:06:50.400Z,68.85
2018-07-28T01:07:00.420Z,68.85
2018-07-28T01:07:10.435Z,68.95
2018-07-28T01:07:20.180Z,69.05
2018-07-28T01:07:30.450Z,69.05
2018-07-28T01:07:40.482Z,69.05
2018-07-28T01:07:50.514Z,69.24
2018-07-28T01:08:00.248Z,69.24
2018-07-28T01:08:10.530Z,69.34
2018-07-28T01:08:20.250Z,69.05
2018-07-28T01:08:30.565Z,69.24
2018-07-28T01:08:40.606Z,69.24
2018-07-28T01:08:50.577Z,69.24
2018-07-28T01:09:00.590Z,69.34
2018-07-28T01:09:10.620Z,69.15
2018-07-28T01:09:20.616Z,69.05
2018-07-28T01:09:30.630Z,69.34
2018-07-28T01:09:40.648Z,69.34
2018-07-28T01:09:50.652Z,68.95
2018-07-28T01:10:00.662Z,69.05
2018-07-28T01:10:10.702Z,69.15
2018-07-28T01:10:20.731Z,69.15
2018-07-28T01:10:30.708Z,69.05
2018-07-28T01:10:40.732Z,69.05
2018-07-28T01:10:50.751Z,69.24
2018-07-28T01:11:00.769Z,69.34
2018-07-28T01:11:10.782Z,69.05
2018-07-28T01:11:20.773Z,69.05
2018-07-28T01:11:30.826Z,69.53
2018-07-28T01:11:40.561Z,69.15
2018-07-28T01:11:50.840Z,69.05
2018-07-28T01:12:00.830Z,68.95
2018-07-28T01:12:10.863Z,69.43
2018-07-28T01:12:20.872Z,69.05
2018-07-28T01:12:30.890Z,69.05
2018-07-28T01:12:40.885Z,69.05
2018-07-28T01:12:50.650Z,69.15
2018-07-28T01:13:00.943Z,69.43
2018-07-28T01:13:10.932Z,69.05
2018-07-28T01:13:20.948Z,68.95
2018-07-28T01:13:30.691Z,69.43
2018-07-28T01:13:40.972Z,69.34
2018-07-28T01:13:50.992Z,69.63
2018-07-28T01:14:00.731Z,69.34
2018-07-28T01:14:11.027Z,69.34
2018-07-28T01:14:21.051Z,69.34
2018-07-28T01:14:31.051Z,69.34
2018-07-28T01:14:41.052Z,69.34
2018-07-28T01:14:51.102Z,69.43
2018-07-28T01:15:01.117Z,69.63
2018-07-28T01:15:11.166Z,69.24
2018-07-28T01:15:21.131Z,69.24
2018-07-28T01:15:31.145Z,69.43
2018-07-28T01:15:41.179Z,69.24
2018-07-28T01:15:50.908Z,69.34
2018-07-28T01:16:01.195Z,69.34
2018-07-28T01:16:10.924Z,69.43
2018-07-28T01:16:21.213Z,69.63
2018-07-28T01:16:31.231Z,69.34
2018-07-28T01:16:40.965Z,69.43
2018-07-28T01:16:51.254Z,69.34
2018-07-28T01:17:01.307Z,69.34
2018-07-28T01:17:11.254Z,69.34
2018-07-28T01:17:21.301Z,69.34
2018-07-28T01:17:31.316Z,69.63
2018-07-28T01:17:41.342Z,69.53
2018-07-28T01:17:51.312Z,69.53
2018-07-28T01:18:01.071Z,69.53
2018-07-28T01:18:11.380Z,69.53
2018-07-28T01:18:21.391Z,69.53
2018-07-28T01:18:31.401Z,69.73
2018-07-28T01:18:41.179Z,69.73
2018-07-28T01:18:51.413Z,69.63
2018-07-28T01:19:01.441Z,69.82
2018-07-28T01:19:11.443Z,70.01
2018-07-28T01:19:21.191Z,70.01
2018-07-28T01:19:31.462Z,69.92
2018-07-28T01:19:41.493Z,70.01
2018-07-28T01:19:51.491Z,70.11
2018-07-28T01:20:01.517Z,70.01
2018-07-28T01:20:11.261Z,69.92
2018-07-28T01:20:21.582Z,70.21
2018-07-28T01:20:31.562Z,70.11
2018-07-28T01:20:41.320Z,70.01
2018-07-28T01:20:51.596Z,69.73
2018-07-28T01:21:01.602Z,69.92
2018-07-28T01:21:11.613Z,69.92
2018-07-28T01:21:21.630Z,69.92
2018-07-28T01:21:31.652Z,70.01
2018-07-28T01:21:41.380Z,69.92
2018-07-28T01:21:51.722Z,69.73
2018-07-28T01:22:01.664Z,69.73
2018-07-28T01:22:11.692Z,69.82
2018-07-28T01:22:21.716Z,69.92
2018-07-28T01:22:31.723Z,69.73
2018-07-28T01:22:41.712Z,70.01
2018-07-28T01:22:51.743Z,69.92
2018-07-28T01:23:01.743Z,69.92
2018-07-28T01:23:11.492Z,69.92
2018-07-28T01:23:21.813Z,69.82
2018-07-28T01:23:31.824Z,69.92
2018-07-28T01:23:41.543Z,69.92
2018-07-28T01:23:51.832Z,69.92
2018-07-28T01:24:01.870Z,70.01
2018-07-28T01:24:11.855Z,69.82
2018-07-28T01:24:21.892Z,69.82
2018-07-28T01:24:31.885Z,69.92
2018-07-28T01:24:41.938Z,69.73
2018-07-28T01:24:51.930Z,69.92
2018-07-28T01:25:01.928Z,69.92
2018-07-28T01:25:11.974Z,69.92
2018-07-28T01:25:21.951Z,69.82
2018-07-28T01:25:31.985Z,70.11
2018-07-28T01:25:41.992Z,70.11
2018-07-28T01:25:51.992Z,70.01
2018-07-28T01:26:02.036Z,70.01
2018-07-28T01:26:11.762Z,70.11
2018-07-28T01:26:22.038Z,69.92
2018-07-28T01:26:32.053Z,69.82
2018-07-28T01:26:41.804Z,69.73
2018-07-28T01:26:52.076Z,69.82
2018-07-28T01:27:01.822Z,70.01
2018-07-28T01:27:12.134Z,69.92
2018-07-28T01:27:22.124Z,70.01
2018-07-28T01:27:32.148Z,70.21
2018-07-28T01:27:42.152Z,70.21
2018-07-28T01:27:52.162Z,70.4
2018-07-28T01:28:02.154Z,70.5
2018-07-28T01:28:12.222Z,70.11
2018-07-28T01:28:22.003Z,70.31
2018-07-28T01:28:31.945Z,70.31
2018-07-28T01:28:42.247Z,70.4
2018-07-28T01:28:52.256Z,70.21
2018-07-28T01:29:02.121Z,70.5
2018-07-28T01:29:12.273Z,70.11
2018-07-28T01:29:22.004Z,70.4
2018-07-28T01:29:32.343Z,70.21
2018-07-28T01:29:42.323Z,70.5
2018-07-28T01:29:52.343Z,70.4
2018-07-28T01:30:02.379Z,70.31
2018-07-28T01:30:12.334Z,70.11
2018-07-28T01:30:22.384Z,70.21
2018-07-28T01:30:32.403Z,70.31
2018-07-28T01:30:42.425Z,70.31
2018-07-28T01:30:52.404Z,70.5
2018-07-28T01:31:02.202Z,70.11
2018-07-28T01:31:12.470Z,70.31
2018-07-28T01:31:22.453Z,70.4
2018-07-28T01:31:32.463Z,69.92
2018-07-28T01:31:42.509Z,69.92
2018-07-28T01:31:52.476Z,70.5
2018-07-28T01:32:02.504Z,70.4
2018-07-28T01:32:12.546Z,70.01
2018-07-28T01:32:22.257Z,70.5
2018-07-28T01:32:32.543Z,70.21
2018-07-28T01:32:42.564Z,70.4
2018-07-28T01:32:52.578Z,70.21
2018-07-28T01:33:02.323Z,70.21
2018-07-28T01:33:12.623Z,70.21
2018-07-28T01:33:22.613Z,70.11
2018-07-28T01:33:32.625Z,70.11
2018-07-28T01:33:42.648Z,70.01
2018-07-28T01:33:52.674Z,70.11
2018-07-28T01:34:02.683Z,70.01
2018-07-28T01:34:12.697Z,70.5
2018-07-28T01:34:22.703Z,70.31
2018-07-28T01:34:32.764Z,70.21
2018-07-28T01:34:42.755Z,70.31
2018-07-28T01:34:52.734Z,70.31
2018-07-28T01:35:02.775Z,70.01
2018-07-28T01:35:12.784Z,70.01
2018-07-28T01:35:22.530Z,70.21
2018-07-28T01:35:32.794Z,70.11
2018-07-28T01:35:42.576Z,70.01
2018-07-28T01:35:52.574Z,70.01
2018-07-28T01:36:02.834Z,70.01
2018-07-28T01:36:12.855Z,70.01
2018-07-28T01:36:22.894Z,70.01
2018-07-28T01:36:32.884Z,70.01
2018-07-28T01:36:42.625Z,70.01
2018-07-28T01:36:52.915Z,70.21
2018-07-28T01:37:02.938Z,70.01
2018-07-28T01:37:12.935Z,70.01
2018-07-28T01:37:22.674Z,70.01
2018-07-28T01:37:32.695Z,70.01
2018-07-28T01:37:42.698Z,70.11
2018-07-28T01:37:53.021Z,70.5
2018-07-28T01:38:02.774Z,70.5
2018-07-28T01:38:13.004Z,70.6
2018-07-28T01:38:23.034Z,70.21
2018-07-28T01:38:33.044Z,70.5
2018-07-28T01:38:43.075Z,70.4
2018-07-28T01:38:53.074Z,70.4
2018-07-28T01:39:03.095Z,70.5
2018-07-28T01:39:13.114Z,70.21
2018-07-28T01:39:23.113Z,70.7
2018-07-28T01:39:33.126Z,70.21
2018-07-28T01:39:43.164Z,70.4
2018-07-28T01:39:53.150Z,70.31
2018-07-28T01:40:03.217Z,70.4
2018-07-28T01:40:13.207Z,70.5
2018-07-28T01:40:23.208Z,70.5
2018-07-28T01:40:33.261Z,70.7
2018-07-28T01:40:43.272Z,70.7
2018-07-28T01:40:53.257Z,70.4
2018-07-28T01:41:03.266Z,70.21
2018-07-28T01:41:13.267Z,70.6
2018-07-28T01:41:23.022Z,70.5
2018-07-28T01:41:33.311Z,70.5
2018-07-28T01:41:43.067Z,70.7
2018-07-28T01:41:53.366Z,70.21
2018-07-28T01:42:03.367Z,70.11
2018-07-28T01:42:13.744Z,70.11
2018-07-28T01:42:23.447Z,70.31
2018-07-28T01:42:33.364Z,70.5
2018-07-28T01:42:43.399Z,70.11
2018-07-28T01:42:53.431Z,70.7
2018-07-28T01:43:03.155Z,70.5
2018-07-28T01:43:13.157Z,70.11
2018-07-28T01:43:23.463Z,70.21
2018-07-28T01:43:33.508Z,70.31
2018-07-28T01:43:43.484Z,69.92
2018-07-28T01:43:53.497Z,69.92
2018-07-28T01:44:03.506Z,69.92
2018-07-28T01:44:13.235Z,69.92
2018-07-28T01:44:23.265Z,70.11
2018-07-28T01:44:33.570Z,69.92
2018-07-28T01:44:43.572Z,69.92
2018-07-28T01:44:53.293Z,69.92
2018-07-28T01:45:03.629Z,70.11
2018-07-28T01:45:13.653Z,69.92
2018-07-28T01:45:23.616Z,70.01
2018-07-28T01:45:33.366Z,70.01
2018-07-28T01:45:43.666Z,70.21
2018-07-28T01:45:53.646Z,70.5
2018-07-28T01:46:03.695Z,70.6
2018-07-28T01:46:13.420Z,70.5
2018-07-28T01:46:23.696Z,70.4
2018-07-28T01:46:33.726Z,70.31
2018-07-28T01:46:43.487Z,70.4
2018-07-28T01:46:53.755Z,70.31
2018-07-28T01:47:03.753Z,70.7
2018-07-28T01:47:13.752Z,70.6
2018-07-28T01:47:23.787Z,70.6
2018-07-28T01:47:33.785Z,70.89
2018-07-28T01:47:43.806Z,70.6
2018-07-28T01:47:53.845Z,70.5
2018-07-28T01:48:03.835Z,70.5
2018-07-28T01:48:13.876Z,70.5
2018-07-28T01:48:23.614Z,70.7
2018-07-28T01:48:33.904Z,70.7
2018-07-28T01:48:43.898Z,70.4
2018-07-28T01:48:53.906Z,70.5
2018-07-28T01:49:03.927Z,70.5
2018-07-28T01:49:13.938Z,70.4
2018-07-28T01:49:24.075Z,70.6
2018-07-28T01:49:34.175Z,70.5
2018-07-28T01:49:43.686Z,70.5
2018-07-28T01:49:53.983Z,70.6
2018-07-28T01:50:03.736Z,70.5
2018-07-28T01:50:13.997Z,70.5
2018-07-28T01:50:23.766Z,70.5
2018-07-28T01:50:34.029Z,70.79
2018-07-28T01:50:44.049Z,70.79
2018-07-28T01:50:53.787Z,70.79
2018-07-28T01:51:04.078Z,70.4
2018-07-28T01:51:14.100Z,70.79
2018-07-28T01:51:23.848Z,70.79
2018-07-28T01:51:33.832Z,70.5
2018-07-28T01:51:44.203Z,70.31
2018-07-28T01:51:54.138Z,70.5
2018-07-28T01:52:04.201Z,70.6
2018-07-28T01:52:14.165Z,70.6
2018-07-28T01:52:23.953Z,70.7
2018-07-28T01:52:34.226Z,70.7
2018-07-28T01:52:44.218Z,70.7
2018-07-28T01:52:54.246Z,70.4
2018-07-28T01:53:04.266Z,70.31
2018-07-28T01:53:13.970Z,70.31
2018-07-28T01:53:23.986Z,70.31
2018-07-28T01:53:34.286Z,70.4
2018-07-28T01:53:44.307Z,70.5
2018-07-28T01:53:54.297Z,70.21
2018-07-28T01:54:04.051Z,70.31
2018-07-28T01:54:14.340Z,70.31
2018-07-28T01:54:24.341Z,70.31
2018-07-28T01:54:34.399Z,70.4
2018-07-28T01:54:44.097Z,70.31
2018-07-28T01:54:54.376Z,70.5
2018-07-28T01:55:04.396Z,70.4
2018-07-28T01:55:14.429Z,70.6
2018-07-28T01:55:24.406Z,70.6
2018-07-28T01:55:34.477Z,70.4
2018-07-28T01:55:44.467Z,70.5
2018-07-28T01:55:54.474Z,70.7
2018-07-28T01:56:04.466Z,70.4
2018-07-28T01:56:14.506Z,70.7
2018-07-28T01:56:24.537Z,70.4
2018-07-28T01:56:34.249Z,70.31
2018-07-28T01:56:44.537Z,70.6
2018-07-28T01:56:54.707Z,70.5
2018-07-28T01:57:04.579Z,70.11
2018-07-28T01:57:14.605Z,70.5
2018-07-28T01:57:24.344Z,70.11
2018-07-28T01:57:34.608Z,70.5
2018-07-28T01:57:44.357Z,70.5
2018-07-28T01:57:54.648Z,70.5
2018-07-28T01:58:04.668Z,70.11
2018-07-28T01:58:14.671Z,70.31
2018-07-28T01:58:24.706Z,70.31
2018-07-28T01:58:34.678Z,70.11
2018-07-28T01:58:44.727Z,70.11
2018-07-28T01:58:54.698Z,70.4
2018-07-28T01:59:04.477Z,70.21
2018-07-28T01:59:14.457Z,70.11
2018-07-28T01:59:24.737Z,70.11
2018-07-28T01:59:34.767Z,70.11
2018-07-28T01:59:44.857Z,70.31
2018-07-28T01:59:54.825Z,70.5
2018-07-28T02:00:04.827Z,70.7
2018-07-28T02:00:14.567Z,70.6
2018-07-28T02:00:24.881Z,70.4
2018-07-28T02:00:34.868Z,70.21
2018-07-28T02:00:44.597Z,70.7
2018-07-28T02:00:54.886Z,70.4
2018-07-28T02:01:04.640Z,70.4
2018-07-28T02:01:14.921Z,70.31
2018-07-28T02:01:24.931Z,70.5
2018-07-28T02:01:34.918Z,70.31
2018-07-28T02:01:44.948Z,70.4
2018-07-28T02:01:54.685Z,70.79
2018-07-28T02:02:04.998Z,70.79
2018-07-28T02:02:14.999Z,70.7
2018-07-28T02:02:24.992Z,70.5
2018-07-28T02:02:35.039Z,70.5
2018-07-28T02:02:45.045Z,70.5
2018-07-28T02:02:55.038Z,70.5
2018-07-28T02:03:05.068Z,70.4
2018-07-28T02:03:15.078Z,70.7
2018-07-28T02:03:25.078Z,70.5
2018-07-28T02:03:35.089Z,70.79
2018-07-28T02:03:45.131Z,70.5
2018-07-28T02:03:55.163Z,70.4
2018-07-28T02:04:05.129Z,70.4
2018-07-28T02:04:14.902Z,70.4
2018-07-28T02:04:25.186Z,70.4
2018-07-28T02:04:35.191Z,70.4
2018-07-28T02:04:45.254Z,70.89
2018-07-28T02:04:55.217Z,70.7
2018-07-28T02:05:04.959Z,70.7
2018-07-28T02:05:15.260Z,70.7
2018-07-28T02:05:25.002Z,70.79
2018-07-28T02:05:35.318Z,70.79
2018-07-28T02:05:45.296Z,70.7
2018-07-28T02:05:55.322Z,70.79
2018-07-28T02:06:05.328Z,70.6
2018-07-28T02:06:15.065Z,70.5
2018-07-28T02:06:25.369Z,70.7
2018-07-28T02:06:35.398Z,70.5
2018-07-28T02:06:45.381Z,70.7
2018-07-28T02:06:55.390Z,70.89
2018-07-28T02:07:05.421Z,71.08
2018-07-28T02:07:15.417Z,70.89
2018-07-28T02:07:25.435Z,70.98
2018-07-28T02:07:35.428Z,70.98
2018-07-28T02:07:45.451Z,71.08
2018-07-28T02:07:55.453Z,71.18
2018-07-28T02:08:05.468Z,71.08
2018-07-28T02:08:15.528Z,70.79
2018-07-28T02:08:25.501Z,70.89
2018-07-28T02:08:35.260Z,71.18
2018-07-28T02:08:45.260Z,71.08
2018-07-28T02:08:55.268Z,71.18
2018-07-28T02:09:05.571Z,71.08
2018-07-28T02:09:15.568Z,71.08
2018-07-28T02:09:25.619Z,70.79
2018-07-28T02:09:35.343Z,71.08